Time;durP1;ratioP1;P1;durP2;ratioP2;P2;SDS_P1;SDS_P2;PMS_P1;PMS_P2;Temp;Humidity;BMP_temperature;BMP_pressure;BME280_temperature;BME280_humidity;BME280_pressure;Samples;Min_cycle;Max_cycle;Signal;HPM_P1;HPM_P2
2023/06/03 04:22:33;;;;;;;2.00;1.52;;;;;;;12.27;85.53;100283.53;5089500;28;20397;-70
2023/06/03 04:25:11;;;;;;;3.97;2.13;;;;;;;12.30;85.45;100280.47;5089648;28;20036;-70
2023/06/03 04:27:46;;;;;;;2.55;1.98;;;;;;;12.37;85.27;100281.41;5067971;28;20024;-69
2023/06/03 04:30:14;;;;;;;;;;;;;;;12.43;84.89;100277.16;5068200;28;20094;-70
2023/06/03 04:32:39;;;;;;;3.08;1.85;;;;;;;12.42;85.06;100283.53;5069155;28;19913;-70
2023/06/03 04:35:05;;;;;;;4.75;1.85;;;;;;;12.42;85.13;100288.88;5067865;28;20037;-70
2023/06/03 04:37:34;;;;;;;5.23;2.43;;;;;;;12.45;84.61;100284.00;5067841;28;20032;-70
2023/06/03 04:40:01;;;;;;;2.50;1.75;;;;;;;12.41;85.27;100280.03;5067313;28;20078;-70
2023/06/03 04:42:30;;;;;;;3.05;2.45;;;;;;;12.44;85.29;100276.97;5067517;28;20106;-69
2023/06/03 04:44:58;;;;;;;3.42;2.40;;;;;;;12.55;84.58;100278.34;5067646;28;20045;-69
2023/06/03 04:47:28;;;;;;;2.78;1.70;;;;;;;12.56;84.73;100281.84;5051139;28;20529;-69
2023/06/03 04:49:55;;;;;;;2.83;1.75;;;;;;;12.56;84.90;100277.34;5067445;28;20072;-70
2023/06/03 04:52:20;;;;;;;3.92;2.20;;;;;;;12.60;84.68;100273.28;5067511;28;20132;-70
2023/06/03 04:54:51;;;;;;;3.10;1.80;;;;;;;12.72;84.47;100265.63;5067435;28;20071;-70
2023/06/03 04:57:19;;;;;;;3.72;2.03;;;;;;;12.85;83.51;100268.47;5067294;28;20036;-70
2023/06/03 04:59:45;;;;;;;4.65;2.20;;;;;;;12.88;83.65;100270.75;5067162;28;20040;-70
2023/06/03 05:02:13;;;;;;;3.17;1.67;;;;;;;12.83;83.51;100261.63;5067015;28;20037;-69
2023/06/03 05:04:41;;;;;;;3.40;1.80;;;;;;;12.90;83.73;100262.53;5067224;28;20512;-71
2023/06/03 05:07:06;;;;;;;3.92;2.17;;;;;;;12.94;83.17;100267.34;5067088;28;20428;-70
2023/06/03 05:09:32;;;;;;;3.53;1.92;;;;;;;12.95;83.22;100266.31;5066822;28;20029;-71
2023/06/03 05:11:58;;;;;;;3.20;2.03;;;;;;;13.14;82.42;100266.72;5067162;28;20032;-70
2023/06/03 05:14:25;;;;;;;4.97;2.13;;;;;;;13.34;81.92;100270.47;5067049;28;20064;-70
2023/06/03 05:16:51;;;;;;;4.50;2.17;;;;;;;13.41;80.96;100267.84;5066893;28;20048;-71
2023/06/03 05:19:16;;;;;;;3.92;1.85;;;;;;;13.35;81.08;100273.97;5066627;28;20037;-70
2023/06/03 05:21:42;;;;;;;3.70;2.15;;;;;;;13.28;81.59;100273.91;5067979;28;20037;-70
2023/06/03 05:24:09;;;;;;;3.30;1.85;;;;;;;13.48;80.46;100271.41;5067051;28;20499;-70
2023/06/03 05:26:35;;;;;;;2.95;1.80;;;;;;;13.46;80.82;100273.47;5066635;28;20131;-70
2023/06/03 05:29:00;;;;;;;3.45;1.70;;;;;;;13.49;80.26;100265.03;5066399;28;20379;-70
2023/06/03 05:31:26;;;;;;;3.63;1.70;;;;;;;13.54;80.13;100270.66;5067839;28;20489;-70
2023/06/03 05:33:51;;;;;;;3.58;1.63;;;;;;;13.52;80.63;100275.38;5053789;28;20052;-70
2023/06/03 05:36:20;;;;;;;3.63;1.98;;;;;;;13.58;79.73;100270.09;5053289;28;20387;-70
2023/06/03 05:38:45;;;;;;;5.38;2.10;;;;;;;13.65;79.45;100269.31;5052876;28;20037;-69
2023/06/03 05:41:13;;;;;;;3.88;2.45;;;;;;;13.71;79.26;100264.03;5053469;28;20029;-70
2023/06/03 05:43:39;;;;;;;3.03;1.70;;;;;;;13.78;78.47;100270.25;5053489;28;20051;-64
2023/06/03 05:46:04;;;;;;;5.07;2.05;;;;;;;13.89;78.20;100260.03;5053387;28;20139;-64
2023/06/03 05:48:30;;;;;;;3.55;1.92;;;;;;;13.98;78.59;100265.06;5053210;28;20179;-63
2023/06/03 05:50:56;;;;;;;3.38;1.73;;;;;;;13.94;77.76;100261.09;5054566;28;20041;-65
2023/06/03 05:53:26;;;;;;;2.53;1.98;;;;;;;14.06;77.78;100266.75;5053273;28;20052;-65
2023/06/03 05:55:53;;;;;;;5.93;2.28;;;;;;;14.10;77.56;100260.00;5053166;28;20494;-64
2023/06/03 05:58:21;;;;;;;3.75;2.05;;;;;;;14.19;77.81;100264.16;5052958;28;20111;-64
2023/06/03 06:00:47;;;;;;;2.92;1.63;;;;;;;14.26;79.20;100258.84;5052841;28;20036;-60
2023/06/03 06:03:13;;;;;;;2.47;1.90;;;;;;;14.53;78.28;100262.53;5052945;28;20059;-61
2023/06/03 06:05:39;;;;;;;3.47;2.13;;;;;;;14.82;74.76;100267.63;5054037;28;20128;-62
2023/06/03 06:08:04;;;;;;;5.05;2.55;;;;;;;14.73;74.79;100260.78;5052842;28;20068;-62
2023/06/03 06:10:30;;;;;;;5.22;2.20;;;;;;;14.76;74.37;100259.56;5052467;28;20048;-61
2023/06/03 06:12:55;;;;;;;3.28;2.45;;;;;;;14.74;74.01;100261.63;5054046;28;20453;-62
2023/06/03 06:15:22;;;;;;;4.13;1.92;;;;;;;14.70;73.56;100260.34;5052542;28;20087;-61
2023/06/03 06:17:48;;;;;;;3.67;2.35;;;;;;;14.73;73.99;100268.81;5052710;28;20033;-60
2023/06/03 06:20:14;;;;;;;2.15;1.90;;;;;;;14.84;73.60;100270.09;5052146;28;20029;-61
2023/06/03 06:22:40;;;;;;;3.30;1.88;;;;;;;14.99;73.85;100267.25;5052624;28;20128;-62
2023/06/03 06:25:08;;;;;;;2.65;1.73;;;;;;;14.92;72.57;100276.13;5052575;28;20067;-59
2023/06/03 06:27:34;;;;;;;4.57;2.00;;;;;;;14.89;72.57;100271.16;5052463;28;20086;-63
2023/06/03 06:30:00;;;;;;;4.13;2.22;;;;;;;15.05;71.76;100263.78;5052180;28;20116;-63
2023/06/03 06:32:26;;;;;;;5.22;2.30;;;;;;;14.97;72.32;100261.28;5052262;28;20029;-63
2023/06/03 06:34:53;;;;;;;5.65;2.65;;;;;;;15.10;71.71;100261.31;5052262;28;20387;-62
2023/06/03 06:37:20;;;;;;;3.40;2.20;;;;;;;15.08;72.36;100263.41;5052402;28;20044;-63
2023/06/03 06:39:47;;;;;;;3.15;2.28;;;;;;;15.25;72.88;100269.19;5050848;28;20033;-63
2023/06/03 06:42:31;;;;;;;3.42;2.17;;;;;;;15.38;71.10;100269.22;5052086;28;20052;-62
2023/06/03 06:45:15;;;;;;;4.90;2.10;;;;;;;15.48;70.40;100269.66;5051161;28;20379;-64
2023/06/03 06:47:41;;;;;;;5.80;3.38;;;;;;;15.47;71.03;100266.16;5052142;28;20064;-64
2023/06/03 06:50:32;;;;;;;2.55;1.90;;;;;;;15.46;70.74;100267.19;5034960;28;20116;-65
2023/06/03 06:53:00;;;;;;;3.80;2.00;;;;;;;15.66;68.49;100266.41;5051857;28;20049;-65
2023/06/03 06:55:49;;;;;;;;;;;;;;;15.72;68.96;100270.97;5052284;28;20528;-63
2023/06/03 06:58:18;;;;;;;3.35;2.22;;;;;;;15.74;69.02;100268.88;5044543;28;19912;-64
2023/06/03 07:00:44;;;;;;;2.05;1.85;;;;;;;15.78;69.08;100263.91;5051929;28;20029;-64
2023/06/03 07:03:12;;;;;;;3.13;2.08;;;;;;;15.89;68.94;100261.44;5051752;28;20512;-63
2023/06/03 07:05:38;;;;;;;3.67;2.30;;;;;;;15.89;67.63;100244.50;5051649;28;20447;-62
2023/06/03 07:08:04;;;;;;;5.25;1.90;;;;;;;16.02;67.72;100264.13;5051619;28;20131;-63
2023/06/03 07:10:30;;;;;;;3.45;2.08;;;;;;;16.06;68.00;100269.91;5051170;28;20041;-64
2023/06/03 07:12:56;;;;;;;2.92;1.88;;;;;;;16.07;68.47;100249.25;5051826;28;20122;-64
2023/06/03 07:15:23;;;;;;;2.70;1.90;;;;;;;16.13;67.41;100261.84;5051421;28;20501;-64
2023/06/03 07:17:53;;;;;;;3.10;2.20;;;;;;;16.20;67.94;100258.09;5051387;28;20391;-63
2023/06/03 07:20:22;;;;;;;3.00;2.00;;;;;;;16.39;67.28;100248.34;5051057;28;20502;-64
2023/06/03 07:22:49;;;;;;;4.90;1.92;;;;;;;16.50;68.18;100254.94;5051515;28;20505;-63
2023/06/03 07:25:35;;;;;;;4.68;2.13;;;;;;;16.60;65.78;100254.50;5051107;28;20099;-63
2023/06/03 07:28:12;;;;;;;3.10;2.28;;;;;;;16.65;66.98;100250.13;5051216;28;20044;-64
2023/06/03 07:30:59;;;;;;;2.90;1.80;;;;;;;16.85;66.04;100254.63;5050863;28;20059;-62
2023/06/03 07:33:36;;;;;;;3.15;1.83;;;;;;;16.96;65.13;100257.47;5051129;28;20045;-64
2023/06/03 07:36:03;;;;;;;3.40;2.27;;;;;;;17.09;65.55;100260.09;5051371;28;20037;-62
2023/06/03 07:38:37;;;;;;;4.28;2.03;;;;;;;17.22;64.10;100255.69;5050725;28;20276;-63
2023/06/03 07:41:06;;;;;;;2.20;1.90;;;;;;;17.46;62.89;100257.56;5051042;28;20063;-64
2023/06/03 07:43:35;;;;;;;3.95;2.20;;;;;;;17.38;61.67;100252.47;5050814;28;20040;-63
2023/06/03 07:46:04;;;;;;;2.95;2.13;;;;;;;17.59;62.83;100260.16;5052205;28;20036;-65
2023/06/03 07:48:30;;;;;;;3.65;2.22;;;;;;;17.72;62.88;100259.28;5051998;28;20505;-64
2023/06/03 07:50:55;;;;;;;3.22;1.98;;;;;;;17.94;61.20;100267.00;5052143;28;20065;-63
2023/06/03 07:53:22;;;;;;;2.35;1.90;;;;;;;17.89;61.77;100267.66;5052046;28;20045;-64
2023/06/03 07:55:49;;;;;;;6.07;2.05;;;;;;;17.86;61.04;100271.59;5051696;28;20037;-64
2023/06/03 07:58:16;;;;;;;4.15;2.10;;;;;;;17.87;61.43;100267.88;5051695;28;20417;-65
2023/06/03 08:00:45;;;;;;;4.28;2.13;;;;;;;18.00;60.00;100253.47;5051645;28;20167;-63
2023/06/03 08:03:18;;;;;;;2.03;1.83;;;;;;;18.06;60.90;100263.34;5051991;28;20401;-62
2023/06/03 08:05:47;;;;;;;4.45;2.13;;;;;;;18.24;61.08;100265.22;5051742;28;20048;-62
2023/06/03 08:08:13;;;;;;;4.65;2.17;;;;;;;18.19;59.85;100273.16;5051965;28;20116;-64
2023/06/03 08:10:38;;;;;;;2.33;1.90;;;;;;;18.32;59.78;100267.66;5051494;28;20037;-64
2023/06/03 08:13:05;;;;;;;2.90;1.88;;;;;;;18.30;59.33;100268.91;5051762;28;20044;-63
2023/06/03 08:15:35;;;;;;;4.93;2.22;;;;;;;18.26;58.87;100262.34;5051819;28;20040;-64
2023/06/03 08:18:04;;;;;;;5.22;2.13;;;;;;;18.14;58.71;100265.75;5051878;28;20045;-64
2023/06/03 08:20:30;;;;;;;4.38;2.42;;;;;;;18.33;59.34;100266.59;5051514;28;20049;-64
2023/06/03 08:22:56;;;;;;;2.88;2.20;;;;;;;18.73;58.58;100263.50;5050642;28;20050;-64
2023/06/03 08:25:22;;;;;;;5.00;2.30;;;;;;;18.67;58.17;100265.22;5051602;28;20036;-62
2023/06/03 08:27:48;;;;;;;5.30;2.17;;;;;;;18.75;57.95;100268.66;5051747;28;20063;-63
2023/06/03 08:30:14;;;;;;;5.38;2.30;;;;;;;19.07;56.65;100270.09;5051635;28;20039;-64
2023/06/03 08:32:43;;;;;;;3.33;2.25;;;;;;;18.96;57.24;100279.78;5050533;28;20043;-58
2023/06/03 08:35:10;;;;;;;3.53;2.53;;;;;;;19.11;56.42;100275.88;5051707;28;20055;-60
2023/06/03 08:37:36;;;;;;;2.47;2.17;;;;;;;19.35;57.45;100272.19;5051639;28;20406;-61
2023/06/03 08:40:05;;;;;;;3.90;1.95;;;;;;;19.32;56.57;100272.69;5051276;28;20075;-61
2023/06/03 08:42:46;;;;;;;3.20;1.92;;;;;;;19.77;53.99;100275.75;5051741;28;20087;-60
2023/06/03 08:45:14;;;;;;;4.80;2.28;;;;;;;19.78;54.50;100280.09;5051640;28;20063;-63
2023/06/03 08:48:00;;;;;;;4.00;1.85;;;;;;;19.97;53.89;100274.59;5051594;28;20045;-63
2023/06/03 08:50:27;;;;;;;3.40;1.97;;;;;;;19.98;53.14;100278.94;5051178;28;20052;-62
2023/06/03 08:52:54;;;;;;;4.15;2.28;;;;;;;20.03;53.16;100273.66;5051577;28;20378;-62
2023/06/03 08:55:21;;;;;;;3.13;2.20;;;;;;;20.13;53.02;100265.78;5051633;28;20044;-62
2023/06/03 08:58:03;;;;;;;3.73;2.37;;;;;;;20.61;52.04;100270.13;5052040;28;20484;-61
2023/06/03 09:00:30;;;;;;;4.82;2.50;;;;;;;20.77;50.90;100274.78;5051086;28;20124;-63
2023/06/03 09:02:55;;;;;;;4.63;3.08;;;;;;;20.64;50.49;100275.03;5051306;28;20041;-63
2023/06/03 09:05:22;;;;;;;3.45;2.33;;;;;;;21.04;50.10;100266.09;5050203;28;20041;-60
2023/06/03 09:07:48;;;;;;;4.65;3.00;;;;;;;21.13;50.12;100268.19;5052536;28;20041;-63
2023/06/03 09:10:20;;;;;;;3.58;2.25;;;;;;;20.99;50.04;100268.69;5054752;28;20082;-59
2023/06/03 09:12:47;;;;;;;4.30;2.30;;;;;;;21.25;49.66;100268.13;5055047;28;20047;-63
2023/06/03 09:15:14;;;;;;;4.18;2.65;;;;;;;21.43;50.04;100269.00;5054837;28;20033;-62
2023/06/03 09:17:41;;;;;;;5.10;2.35;;;;;;;21.39;49.58;100266.00;5055089;28;20064;-60
2023/06/03 09:20:08;;;;;;;3.55;2.38;;;;;;;21.79;48.78;100273.16;5054543;28;20045;-61
2023/06/03 09:22:35;;;;;;;3.80;2.40;;;;;;;21.79;49.83;100260.44;5054980;28;20104;-60
2023/06/03 09:25:01;;;;;;;3.45;2.17;;;;;;;22.29;48.34;100266.88;5054889;28;20287;-62
2023/06/03 09:27:26;;;;;;;4.47;2.65;;;;;;;22.18;48.40;100266.75;5054695;28;20078;-61
2023/06/03 09:29:53;;;;;;;5.30;2.45;;;;;;;22.08;47.64;100263.03;5054437;28;20070;-62
2023/06/03 09:32:20;;;;;;;2.80;1.88;;;;;;;22.50;46.26;100270.72;5054360;28;20095;-62
2023/06/03 09:34:46;;;;;;;3.08;2.47;;;;;;;22.80;45.39;100273.81;5054705;28;20072;-63
2023/06/03 09:37:12;;;;;;;3.83;2.45;;;;;;;22.70;45.65;100268.28;5054647;28;20364;-62
2023/06/03 09:39:38;;;;;;;4.93;2.70;;;;;;;22.95;45.74;100262.34;5054353;28;20123;-62
2023/06/03 09:42:04;;;;;;;4.65;2.42;;;;;;;23.11;45.36;100266.88;5054592;28;20116;-62
2023/06/03 09:44:41;;;;;;;2.85;2.28;;;;;;;23.37;45.33;100273.38;5054479;28;20028;-62
2023/06/03 09:47:07;;;;;;;2.85;2.13;;;;;;;23.80;43.36;100269.75;5054480;28;20441;-59
2023/06/03 09:49:32;;;;;;;3.10;2.28;;;;;;;23.61;44.81;100267.63;5053186;28;20074;-59
2023/06/03 09:51:58;;;;;;;2.67;2.10;;;;;;;23.46;45.64;100266.41;5050768;28;20144;-63
2023/06/03 09:54:24;;;;;;;6.32;2.65;;;;;;;23.61;44.82;100267.63;5034496;28;20506;-58
2023/06/03 09:56:51;;;;;;;3.88;2.50;;;;;;;23.64;44.88;100273.41;5043311;28;20047;-64
2023/06/03 09:59:21;;;;;;;5.45;2.55;;;;;;;23.15;44.40;100267.19;5056655;28;20049;-56
2023/06/03 10:01:48;;;;;;;7.38;2.65;;;;;;;23.74;44.36;100259.06;5054152;28;20033;-60
2023/06/03 10:04:23;;;;;;;3.65;2.70;;;;;;;23.78;44.12;100255.56;5070724;28;20036;-59
2023/06/03 10:07:17;;;;;;;4.82;2.60;;;;;;;23.67;43.63;100261.16;5074172;28;20048;-60
2023/06/03 10:09:45;;;;;;;2.88;2.38;;;;;;;24.15;43.91;100262.09;5073782;28;20025;-59
2023/06/03 10:12:11;;;;;;;3.17;2.15;;;;;;;24.52;43.05;100257.44;5073877;28;20041;-60
2023/06/03 10:14:47;;;;;;;2.70;2.17;;;;;;;24.44;42.04;100254.38;5059989;28;20044;-63
2023/06/03 10:17:14;;;;;;;6.38;2.50;;;;;;;24.92;41.72;100261.41;5069678;28;20556;-63
2023/06/03 10:19:44;;;;;;;2.95;2.33;;;;;;;25.17;40.88;100255.25;5052430;28;20494;-63
2023/06/03 10:22:12;;;;;;;3.97;2.40;;;;;;;24.84;40.97;100248.28;5053478;28;20070;-63
2023/06/03 10:24:40;;;;;;;4.65;2.42;;;;;;;25.11;40.88;100248.13;5053786;28;20029;-63
2023/06/03 10:27:06;;;;;;;3.67;2.22;;;;;;;25.77;39.57;100250.94;5053593;28;20045;-63
2023/06/03 10:29:33;;;;;;;4.53;2.40;;;;;;;25.43;40.23;100246.00;5053429;28;20448;-64
2023/06/03 10:32:03;;;;;;;6.72;2.65;;;;;;;25.10;40.64;100243.75;5053681;28;20067;-63
2023/06/03 10:34:36;;;;;;;2.70;2.22;;;;;;;24.78;41.43;100242.03;5053665;28;20041;-63
2023/06/03 10:37:04;;;;;;;4.20;2.40;;;;;;;25.22;41.40;100249.78;5053490;28;20096;-63
2023/06/03 10:39:30;;;;;;;4.00;2.40;;;;;;;25.69;40.31;100248.72;5053144;28;20040;-63
2023/06/03 10:42:00;;;;;;;3.13;2.30;;;;;;;25.52;39.75;100253.63;5053282;28;20044;-63
2023/06/03 10:44:26;;;;;;;4.72;2.80;;;;;;;26.04;39.35;100241.63;5053363;28;20504;-63
2023/06/03 10:47:25;;;;;;;5.03;2.42;;;;;;;25.77;39.65;100247.41;5053223;28;20127;-63
2023/06/03 10:49:58;;;;;;;4.45;2.40;;;;;;;26.20;38.72;100241.31;5049782;28;20048;-63
2023/06/03 10:52:48;;;;;;;3.83;2.67;;;;;;;26.74;37.57;100250.75;5053087;28;20037;-62
2023/06/03 10:55:16;;;;;;;4.05;2.33;;;;;;;26.77;37.44;100239.25;5053195;28;20040;-62
2023/06/03 10:57:51;;;;;;;7.13;2.70;;;;;;;26.64;38.83;100251.59;5053133;28;20045;-63
2023/06/03 11:00:53;;;;;;;4.60;2.67;;;;;;;27.29;37.32;100249.63;5052672;28;20036;-63
2023/06/03 11:03:23;;;;;;;5.20;2.55;;;;;;;27.49;36.93;100248.66;5053093;28;20390;-63
2023/06/03 11:05:50;;;;;;;3.55;2.30;;;;;;;27.31;37.61;100241.94;5052786;28;20119;-63
2023/06/03 11:08:57;;;;;;;5.57;2.97;;;;;;;27.16;37.47;100233.84;5052542;28;20037;-63
2023/06/03 11:11:40;;;;;;;3.97;2.45;;;;;;;26.97;37.80;100232.84;5030660;28;20048;-63
2023/06/03 11:14:06;;;;;;;3.78;2.45;;;;;;;27.00;37.92;100227.66;5052670;28;20080;-63
2023/06/03 11:16:57;;;;;;;3.95;2.60;;;;;;;27.13;37.63;100231.69;5051487;28;20493;-63
2023/06/03 11:19:58;;;;;;;4.20;2.63;;;;;;;27.17;38.00;100234.66;5052261;28;20044;-63
2023/06/03 11:22:26;;;;;;;4.00;2.58;;;;;;;27.31;37.62;100238.41;4990643;28;20134;-64
2023/06/03 11:24:52;;;;;;;3.00;2.53;;;;;;;27.53;36.92;100227.03;5040923;28;20045;-63
2023/06/03 11:27:20;;;;;;;4.53;2.75;;;;;;;27.40;37.55;100230.41;5052483;28;20525;-63
2023/06/03 11:29:46;;;;;;;3.30;2.60;;;;;;;27.70;36.57;100241.13;5051876;28;20029;-63
2023/06/03 11:32:24;;;;;;;3.35;2.45;;;;;;;27.79;36.41;100233.13;5050994;28;20037;-62
2023/06/03 11:34:51;;;;;;;4.05;2.80;;;;;;;27.91;36.40;100221.78;5051080;28;20087;-62
2023/06/03 11:37:19;;;;;;;5.30;3.17;;;;;;;28.28;36.31;100218.38;5052152;28;20036;-63
2023/06/03 11:40:00;;;;;;;3.28;2.38;;;;;;;28.28;36.65;100224.66;5052039;28;20029;-63
2023/06/03 11:42:26;;;;;;;5.40;3.22;;;;;;;28.56;35.44;100214.78;5052387;28;20036;-66
2023/06/03 11:44:52;;;;;;;4.10;2.80;;;;;;;28.85;34.99;100209.19;5052390;28;20028;-66
2023/06/03 11:47:17;;;;;;;4.95;2.90;;;;;;;28.49;35.76;100217.06;5050922;28;20079;-65
2023/06/03 11:49:43;;;;;;;5.47;3.38;;;;;;;28.69;35.29;100210.53;5051844;28;20079;-66
2023/06/03 11:52:09;;;;;;;3.70;2.47;;;;;;;28.66;35.42;100202.88;5051982;28;20055;-66
2023/06/03 11:54:36;;;;;;;4.38;2.90;;;;;;;28.60;35.14;100206.78;5052172;28;20124;-67
2023/06/03 11:57:03;;;;;;;3.85;2.90;;;;;;;28.68;35.43;100208.88;5052015;28;20064;-65
2023/06/03 11:59:32;;;;;;;4.38;2.83;;;;;;;28.91;34.96;100208.03;5050597;28;20088;-65
2023/06/03 12:02:03;;;;;;;5.75;3.88;;;;;;;29.39;34.01;100201.53;5051912;28;20029;-64
2023/06/03 12:04:30;;;;;;;4.57;3.05;;;;;;;29.12;34.68;100194.03;5052064;28;20498;-62
2023/06/03 12:06:57;;;;;;;5.75;3.47;;;;;;;28.19;35.73;100182.63;5051800;28;20037;-64
2023/06/03 12:09:27;;;;;;;3.15;2.33;;;;;;;29.08;35.41;100192.97;5051609;28;20041;-62
2023/06/03 12:11:54;;;;;;;4.40;3.15;;;;;;;29.42;34.20;100198.22;5051914;28;20033;-64
2023/06/03 12:14:25;;;;;;;5.85;3.78;;;;;;;29.99;34.10;100190.63;5051727;28;20036;-65
2023/06/03 12:16:52;;;;;;;4.07;2.80;;;;;;;30.16;33.06;100190.88;5051790;28;20116;-64
2023/06/03 12:19:18;;;;;;;5.78;3.22;;;;;;;29.72;33.41;100189.47;5051488;28;20037;-65
2023/06/03 12:21:43;;;;;;;3.97;2.95;;;;;;;28.95;34.13;100193.72;5051658;28;20033;-64
2023/06/03 12:24:10;;;;;;;4.90;3.47;;;;;;;29.18;34.37;100181.88;5051879;28;20033;-62
2023/06/03 12:26:38;;;;;;;4.60;3.13;;;;;;;29.83;33.68;100179.13;5051547;28;20048;-65
2023/06/03 12:29:05;;;;;;;5.50;2.92;;;;;;;29.71;33.63;100171.38;5051334;28;20378;-63
2023/06/03 12:31:31;;;;;;;4.82;2.83;;;;;;;30.48;32.77;100176.22;5051865;28;20397;-64
2023/06/03 12:33:56;;;;;;;6.47;3.10;;;;;;;30.05;33.31;100177.63;5050476;28;20041;-64
2023/06/03 12:36:22;;;;;;;5.30;3.00;;;;;;;29.95;32.91;100173.97;5051846;28;20045;-62
2023/06/03 12:38:59;;;;;;;4.28;3.40;;;;;;;30.44;32.57;100169.69;5051332;28;20103;-62
2023/06/03 12:41:25;;;;;;;4.55;2.90;;;;;;;30.40;32.86;100165.13;5051603;28;20098;-64
2023/06/03 12:44:05;;;;;;;3.17;2.60;;;;;;;30.48;32.34;100165.22;5054500;28;20079;-63
2023/06/03 12:46:30;;;;;;;3.88;2.90;;;;;;;30.79;31.84;100161.84;5055497;28;20040;-64
2023/06/03 12:48:56;;;;;;;3.55;2.83;;;;;;;30.74;32.18;100157.25;5055410;28;20430;-64
2023/06/03 12:51:28;;;;;;;3.42;3.05;;;;;;;30.45;32.77;100143.03;5055295;28;20124;-62
2023/06/03 12:53:55;;;;;;;3.50;2.80;;;;;;;30.94;31.91;100164.22;5055380;28;20041;-64
2023/06/03 12:56:32;;;;;;;5.38;3.15;;;;;;;31.18;32.19;100158.44;5055376;28;20044;-64
2023/06/03 12:58:57;;;;;;;3.97;3.00;;;;;;;31.17;31.50;100156.81;5055143;28;20505;-64
2023/06/03 13:01:23;;;;;;;5.40;3.00;;;;;;;31.34;31.26;100153.38;5055313;28;20045;-64
2023/06/03 13:03:54;;;;;;;4.80;3.00;;;;;;;30.85;31.50;100152.34;5055260;28;20115;-65
2023/06/03 13:06:21;;;;;;;5.28;2.83;;;;;;;31.57;29.97;100154.97;5055112;28;20037;-63
2023/06/03 13:08:50;;;;;;;4.03;3.05;;;;;;;31.15;31.17;100149.97;5054813;28;20036;-65
2023/06/03 13:11:16;;;;;;;3.95;2.72;;;;;;;31.50;30.50;100146.38;5055010;28;20131;-64
2023/06/03 13:13:42;;;;;;;6.45;3.05;;;;;;;29.35;33.04;100138.25;5055173;28;20043;-63
2023/06/03 13:16:07;;;;;;;4.68;2.70;;;;;;;29.34;34.04;100149.50;5054969;28;20032;-65
2023/06/03 13:18:33;;;;;;;4.18;2.60;;;;;;;29.48;34.52;100146.81;5054707;28;20059;-65
2023/06/03 13:21:00;;;;;;;4.63;2.75;;;;;;;28.99;34.35;100139.94;5054848;28;20094;-64
2023/06/03 13:23:25;;;;;;;4.63;3.00;;;;;;;28.83;34.87;100145.63;5054806;28;20045;-64
2023/06/03 13:25:51;;;;;;;4.78;3.13;;;;;;;28.44;34.55;100145.91;5054612;28;20596;-63
2023/06/03 13:28:16;;;;;;;4.68;3.28;;;;;;;28.04;35.55;100136.25;5054610;28;20056;-63
2023/06/03 13:30:42;;;;;;;6.05;3.35;;;;;;;27.49;36.50;100130.22;5054601;28;20025;-64
2023/06/03 13:33:07;;;;;;;5.30;2.75;;;;;;;27.78;36.22;100139.28;5054735;28;20044;-64
2023/06/03 13:35:33;;;;;;;5.10;3.00;;;;;;;27.76;36.55;100140.66;5054579;28;20033;-61
2023/06/03 13:37:58;;;;;;;5.45;2.78;;;;;;;27.19;37.84;100139.50;5054597;28;20053;-63
2023/06/03 13:40:24;;;;;;;5.65;3.17;;;;;;;27.36;37.49;100139.91;5054292;28;20033;-64
2023/06/03 13:42:49;;;;;;;4.60;3.03;;;;;;;27.15;37.59;100135.72;5054493;28;20033;-62
2023/06/03 13:45:15;;;;;;;5.43;3.22;;;;;;;27.12;37.92;100131.63;5054406;28;20052;-63
2023/06/03 13:47:40;;;;;;;3.60;2.50;;;;;;;27.23;38.15;100140.56;5054231;28;20367;-64
2023/06/03 13:50:07;;;;;;;4.38;3.17;;;;;;;26.60;38.39;100122.13;5054284;28;20041;-63
2023/06/03 13:52:33;;;;;;;3.78;2.97;;;;;;;27.04;37.95;100132.22;5054240;28;20037;-64
2023/06/03 13:54:59;;;;;;;6.78;3.65;;;;;;;27.03;38.08;100130.59;5053837;28;20095;-65
2023/06/03 13:57:24;;;;;;;3.55;2.90;;;;;;;26.77;38.57;100130.78;5054161;28;20041;-63
2023/06/03 13:59:50;;;;;;;4.35;2.92;;;;;;;26.55;38.71;100121.38;5054132;28;20116;-64
2023/06/03 14:02:15;;;;;;;4.63;3.30;;;;;;;26.56;38.73;100117.53;5054324;28;20036;-62
2023/06/03 14:04:42;;;;;;;3.42;3.13;;;;;;;26.69;37.99;100115.00;5054076;28;20025;-63
2023/06/03 14:07:08;;;;;;;4.30;2.97;;;;;;;26.69;38.76;100106.78;5053948;28;20044;-64
2023/06/03 14:09:33;;;;;;;5.85;3.33;;;;;;;26.85;38.08;100120.34;5053749;28;20398;-63
2023/06/03 14:11:59;;;;;;;5.60;2.85;;;;;;;26.43;39.07;100110.78;5053716;28;20041;-64
2023/06/03 14:14:25;;;;;;;2.95;2.60;;;;;;;26.39;38.98;100104.19;5053904;28;20045;-65
2023/06/03 14:16:50;;;;;;;4.03;3.10;;;;;;;26.57;38.32;100108.25;5052654;28;20086;-65
2023/06/03 14:19:16;;;;;;;4.95;3.22;;;;;;;26.46;38.30;100107.47;5053616;28;20121;-64
2023/06/03 14:21:41;;;;;;;4.72;3.17;;;;;;;26.06;39.13;100106.53;5053769;28;20033;-60
2023/06/03 14:24:07;;;;;;;5.00;3.13;;;;;;;26.36;39.12;100102.88;5053663;28;20393;-57
2023/06/03 14:26:35;;;;;;;5.03;3.10;;;;;;;26.48;38.16;100103.38;5053660;28;20048;-59
2023/06/03 14:29:10;;;;;;;5.65;3.03;;;;;;;26.22;38.45;100101.84;5053362;28;20112;-56
2023/06/03 14:31:36;;;;;;;4.32;2.83;;;;;;;25.85;39.02;100092.16;5053578;28;20041;-59
2023/06/03 14:34:04;;;;;;;3.88;2.70;;;;;;;26.04;39.22;100092.38;5053419;28;20031;-58
2023/06/03 14:36:29;;;;;;;4.22;2.90;;;;;;;26.00;39.25;100093.19;5053393;28;20041;-59
2023/06/03 14:38:55;;;;;;;3.53;2.80;;;;;;;26.20;38.87;100090.38;5053103;28;20037;-62
2023/06/03 14:41:21;;;;;;;2.78;2.47;;;;;;;26.39;38.56;100096.00;5053492;28;20029;-59
2023/06/03 14:43:46;;;;;;;5.10;2.97;;;;;;;26.19;38.79;100086.00;5053312;28;20082;-59
2023/06/03 14:46:11;;;;;;;3.97;3.10;;;;;;;26.20;39.57;100085.72;5053178;28;20036;-57
2023/06/03 14:48:37;;;;;;;3.72;2.90;;;;;;;26.30;38.56;100086.78;5052759;28;20095;-60
2023/06/03 14:51:02;;;;;;;5.10;3.03;;;;;;;26.26;38.22;100086.53;5053213;28;20068;-56
2023/06/03 14:53:28;;;;;;;5.82;3.00;;;;;;;25.63;38.85;100084.28;5053049;28;20036;-57
2023/06/03 14:55:54;;;;;;;4.05;3.10;;;;;;;26.07;38.09;100088.25;5052984;28;20131;-58
2023/06/03 14:58:21;;;;;;;4.72;2.90;;;;;;;25.99;38.41;100073.28;5052770;28;20494;-59
2023/06/03 15:00:47;;;;;;;3.58;2.65;;;;;;;26.10;38.06;100077.59;5052918;28;20041;-58
2023/06/03 15:03:13;;;;;;;3.40;2.72;;;;;;;26.00;38.14;100080.38;5052748;28;20047;-58
2023/06/03 15:05:38;;;;;;;5.10;2.88;;;;;;;25.57;38.70;100073.66;5052216;28;20041;-58
2023/06/03 15:08:04;;;;;;;3.47;2.80;;;;;;;25.70;38.98;100079.34;5053126;28;20036;-58
2023/06/03 15:10:29;;;;;;;5.47;2.90;;;;;;;25.80;39.35;100072.25;5052418;28;20063;-58
2023/06/03 15:12:55;;;;;;;4.60;2.95;;;;;;;25.73;38.46;100079.91;5052766;28;20256;-58
2023/06/03 15:15:20;;;;;;;5.28;3.17;;;;;;;25.79;37.77;100071.44;5052476;28;20402;-57
2023/06/03 15:17:46;;;;;;;4.28;2.63;;;;;;;25.66;38.70;100072.81;5052564;28;20045;-58
2023/06/03 15:20:11;;;;;;;4.63;3.00;;;;;;;25.74;39.07;100071.44;5052281;28;20043;-58
2023/06/03 15:22:37;;;;;;;5.53;2.97;;;;;;;25.83;38.75;100066.25;5052957;28;20516;-58
2023/06/03 15:25:03;;;;;;;4.93;3.00;;;;;;;25.91;38.04;100071.94;5052510;28;20033;-56
2023/06/03 15:27:28;;;;;;;3.97;2.88;;;;;;;25.96;37.38;100071.13;5052472;28;20040;-57
2023/06/03 15:29:54;;;;;;;4.30;2.75;;;;;;;25.80;38.03;100058.63;5052221;28;20078;-56
2023/06/03 15:32:20;;;;;;;3.95;3.25;;;;;;;25.68;37.59;100058.88;5052131;28;20045;-57
2023/06/03 15:34:45;;;;;;;4.30;3.20;;;;;;;25.79;38.08;100067.91;5052525;28;20059;-58
2023/06/03 15:37:10;;;;;;;3.92;3.10;;;;;;;25.76;38.44;100066.56;5052367;28;20116;-58
2023/06/03 15:39:36;;;;;;;3.83;2.90;;;;;;;25.83;37.46;100069.81;5051950;28;20036;-58
2023/06/03 15:42:01;;;;;;;5.50;2.97;;;;;;;25.56;37.85;100061.09;5052284;28;20029;-58
2023/06/03 15:44:27;;;;;;;4.68;3.45;;;;;;;25.65;38.30;100068.47;5052099;28;20064;-58
2023/06/03 15:46:52;;;;;;;6.00;3.40;;;;;;;25.35;38.33;100058.44;5051746;28;20433;-62
2023/06/03 15:49:17;;;;;;;6.15;4.03;;;;;;;25.50;38.27;100063.06;5050702;28;20063;-58
2023/06/03 15:51:44;;;;;;;5.03;2.72;;;;;;;25.56;38.82;100061.94;5051961;28;20125;-60
2023/06/03 15:54:09;;;;;;;4.10;2.72;;;;;;;25.43;38.01;100066.06;5052191;28;20468;-58